St. George, Utah Weather observations

Data are for observation ending at time listed.
 Day   Time    Ave.   Ave.  Ave.  Vector   Max.   Stn.    Total    Solar   Ave.  
  of    of     Air    Rel.  Wind   Wind    Wind   Baro.  Precip.   Rad.    Soil  
Year   Day     Temp.  Hum.  Speed  Dir.    Gust   Pres.                    Temp. 
2014   (MST)    F      %     mph   deg.    mph     mb.     in.     W/m2     F   
------------------------------------------------------------------------------
 274    4:00   58.8    66    1.5   315      3.4   915.6    0.00       0    71.7
 274    4:10   59.3    64    0.7   288      2.4   915.6    0.00       0    71.6
 274    4:20   59.5    64    0.6   132      1.9   915.6    0.00       0    71.5
 274    4:30   58.9    66    0.3   177      1.6   915.6    0.00       0    71.4
 274    4:40   58.5    68    1.0   184      3.1   915.8    0.00       0    71.3
 274    4:50   58.2    69    0.5    81      2.6   916.0    0.00       0    71.3
 274    5:00   58.5    68    0.6   133      2.1   916.2    0.00       0    71.2
 274    5:10   58.5    67    1.0   137      2.4   916.3    0.00       0    71.1
 274    5:20   58.4    66    0.8   134      2.0   916.4    0.00       0    71.0
 274    5:30   58.4    66    0.7   274      2.0   916.7    0.00       0    71.0
 274    5:40   58.1    65    0.9   121      2.7   916.7    0.00       0    70.9
 274    5:50   57.7    64    0.2    86      1.3   916.8    0.00       0    70.8
 274    6:00   57.4    67    1.1   352      2.0   916.9    0.00       0    70.8
 274    6:10   57.1    66    0.4    74      1.4   917.0    0.00       0    70.7
 274    6:20   56.9    66    0.5    96      2.8   917.1    0.00       0    70.6
 274    6:30   57.5    65    0.8   109      2.3   917.2    0.00       0    70.5
 274    6:40   57.6    65    1.0    46      2.6   917.5    0.00       6    70.5
 274    6:50   57.9    63    2.0    25      4.2   917.7    0.00      10    70.4
 274    7:00   58.0    62    1.4    23      4.3   917.8    0.00      15    70.3
 274    7:10   58.8    60    0.9    32      2.2   917.9    0.00      20    70.2
 274    7:20   59.3    59    0.2    27      1.7   917.9    0.00      23    70.2
 274    7:30   60.2    56    1.1    52      3.1   918.1    0.00      29    70.1
 274    7:40   61.1    55    1.2   231      2.9   918.1    0.00      36    70.0
 274    7:50   61.6    54    0.6   174      2.0   918.3    0.00      54    69.9
 274    8:00   61.8    53    0.7   150      1.9   918.4    0.00     151    69.9
 274    8:10   62.1    53    0.5   107      2.0   918.5    0.00     239    69.8
 274    8:20   63.4    51    0.5   186      2.4   918.6    0.00     319    69.8
 274    8:30   65.0    49    1.0   177      2.5   918.7    0.00     231    69.7
 274    8:40   66.0    47    2.2   179      4.8   918.8    0.00     409    69.7
 274    8:50   66.2    48    2.7   180      5.3   918.9    0.00     418    69.7
 274    9:00   67.4    46    3.1   186      6.4   919.0    0.00     528    69.7
 274    9:10   67.4    45    3.2   177      7.1   919.1    0.00     365    69.7
 274    9:20   67.5    46    2.7   153      6.1   919.1    0.00     223    69.6
 274    9:30   68.0    44    3.0   159      7.0   919.2    0.00     266    69.6
 274    9:40   68.1    44    2.5   148      6.6   919.3    0.00     196    69.5
 274    9:50   68.2    43    3.0   153      6.6   919.3    0.00     209    69.5
 274   10:00   68.9    42    3.1   174      6.2   919.3    0.00     388    69.5
 274   10:10   69.7    41    3.7   194      9.3   919.3    0.00     550    69.5
 274   10:20   69.4    40    3.3   175      6.6   919.4    0.00     443    69.6
 274   10:30   69.1    41    3.1   160      7.5   919.4    0.00     219    69.6
 274   10:40   69.4    40    3.4   172     10.4   919.4    0.00     386    69.6
 274   10:50   70.4    37    3.1   208      5.6   919.4    0.00     646    69.6
 274   11:00   71.0    37    3.0   170      7.2   919.4    0.00     590    69.6
 274   11:10   71.3    38    2.7    86      8.7   919.4    0.00     718    69.6
 274   11:20   71.6    38    2.1   102      6.1   919.4    0.00     729    69.7
 274   11:30   72.1    37    2.6   104      5.6   919.3    0.00     736    69.7
 274   11:40   71.7    37    2.6    66      7.7   919.3    0.00     746    69.6
 274   11:50   71.7    36    2.8   200      5.8   919.3    0.00     757    69.7
 274   12:00   72.9    35    1.7   105      5.0   919.3    0.00     778    69.7
 274   12:10   73.6    34    2.7   126      5.3   919.3    0.00     766    69.8
 274   12:20   73.9    33    2.8   140      8.4   919.3    0.00     810    69.9
 274   12:30   74.1    33    2.5   144      7.3   919.3    0.00     823    70.0
 274   12:40   74.3    28    2.5   199      7.9   919.1    0.00     792    70.1
 274   12:50   74.9    23    3.7   239     10.7   919.0    0.00     797    70.3
 274   13:00   75.5    23    3.3   287     12.9   918.9    0.00     796    70.4
 274   13:10   75.2    21    4.2   259     11.3   918.9    0.00     790    70.6
 274   13:20   75.4    21    4.4   289     12.6   918.9    0.00     778    70.8
 274   13:30   74.8    21    4.7   264     12.1   918.9    0.00     770    71.0
 274   13:40   75.3    20    3.7   283     10.8   918.8    0.00     761    71.2
 274   13:50   75.1    19    4.5   252     11.5   918.6    0.00     752    71.5
 274   14:00   75.6    18    4.8   253     11.4   918.5    0.00     739    71.7
 274   14:10   75.5    18    5.6   272     13.4   918.5    0.00     724    71.9
 274   14:20   75.2    19    5.3   252     11.8   918.3    0.00     708    72.1
 274   14:30   75.6    20    3.5   177     10.4   918.2    0.00     692    72.3
 274   14:40   75.2    23    5.7    90     15.1   918.3    0.00     666    72.5
 274   14:50   74.2    24    5.3    65     17.4   918.7    0.00     647    72.8
 274   15:00   74.8    23    3.5    98      8.6   918.8    0.00     619    73.0
 274   15:10   74.7    23    3.3    88      9.4   918.8    0.00     592    73.2
 274   15:20   74.5    22    2.7    39      7.2   919.0    0.00     566    73.4
 274   15:30   75.5    22    2.2    96      6.9   919.1    0.00     546    73.6
 274   15:40   75.4    21    2.1   282      5.0   919.2    0.00     521    73.8
 274   15:50   75.6    20    3.1   220     11.6   919.1    0.00     494    74.0
 274   16:00   75.5    21    8.2   339     17.8   919.0    0.00     466    74.2
 274   16:10   74.3    21    5.8    14     13.5   919.5    0.00     437    74.4
 274   16:20   74.9    20    4.7   327     12.5   919.5    0.00     406    74.5
 274   16:30   75.0    20    4.8   321     12.1   919.7    0.00     372    74.7
 274   16:40   75.3    19    2.7   289     11.5   919.7    0.00     340    74.8
 274   16:50   74.3    20    5.7   241     13.5   919.6    0.00     308    74.9
 274   17:00   74.2    18    6.2   292     16.7   919.2    0.00     275    75.1
 274   17:10   74.1    17    6.5   319     13.3   919.3    0.00     241    75.1
 274   17:20   73.6    20    3.0    73     11.8   919.8    0.00     199    75.2
 274   17:30   73.0    20    3.6   339     11.9   920.2    0.00     153    75.3
 274   17:40   71.7    18    3.4   242      8.2   920.3    0.00      25    75.4
 274   17:50   71.3    18    4.9   224     11.5   920.2    0.00      20    75.4
 274   18:00   70.6    19    4.0   177      8.6   920.2    0.00      16    75.4
 274   18:10   69.7    20    3.5   103      7.9   920.4    0.00      10    75.4
 274   18:20   69.4    20    3.3    51     10.7   920.7    0.00       7    75.4
 274   18:30   68.9    20    2.5    42      6.6   920.9    0.00       3    75.3
 274   18:40   68.2    20    2.9    58     11.2   921.0    0.00       1    75.3
 274   18:50   67.9    21    2.9    86     10.0   921.0    0.00       0    75.2
 274   19:00   67.6    21    3.7    73      9.6   921.0    0.00       0    75.1
 274   19:10   67.4    21    3.1    85     10.5   921.1    0.00       0    75.1
 274   19:20   67.0    22    5.2    62     16.1   921.3    0.00       0    75.0
 274   19:30   67.1    22    4.0    79     12.4   921.5    0.00       0    74.9
 274   19:40   66.2    24    3.0    77      7.4   921.6    0.00       0    74.8
 274   19:50   65.8    24    2.2    62      6.7   921.7    0.00       0    74.7
 274   20:00   65.4    24    2.6    57      6.8   921.9    0.00       0    74.6
 274   20:10   65.3    24    1.8    63      6.4   922.1    0.00       0    74.6
 274   20:20   65.0    24    2.3    64      6.4   922.3    0.00       0    74.4
 274   20:30   64.7    24    1.6   117      4.6   922.4    0.00       0    74.3
 274   20:40   64.1    24    1.6    71      6.4   922.5    0.00       0    74.2
 274   20:50   64.5    23    2.0    93      4.8   922.6    0.00       0    74.1
 274   21:00   64.3    23    1.7    90      4.7   922.8    0.00       0    74.0
 274   21:10   64.0    24    2.1   110      5.7   922.9    0.00       0    73.9
 274   21:20   63.8    24    2.2    69      6.6   922.9    0.00       0    73.8
 274   21:30   63.9    24    2.4    80      7.7   923.0    0.00       0    73.7
 274   21:40   63.7    24    1.0   282      2.7   923.2    0.00       0    73.6
 274   21:50   62.8    26    1.0   236      3.5   923.4    0.00       0    73.5
 274   22:00   61.7    27    1.2   322      3.4   923.5    0.00       0    73.4
 274   22:10   60.6    29    0.8   316      2.0   923.6    0.00       0    73.3
 274   22:20   60.1    30    1.1   318      2.0   923.7    0.00       0    73.2
 274   22:30   59.7    31    0.9   298      2.1   923.8    0.00       0    73.1
 274   22:40   59.1    32    0.8   306      2.6   923.9    0.00       0    73.0
 274   22:50   58.5    33    0.7   332      1.5   923.9    0.00       0    72.9
 274   23:00   58.1    35    0.3    31      1.2   924.0    0.00       0    72.8
 274   23:10   57.9    35    0.6     5      1.6   924.0    0.00       0    72.7
 274   23:20   58.0    36    1.1    10      2.3   924.1    0.00       0    72.6
 274   23:30   57.6    37    1.5   310      2.6   924.1    0.00       0    72.5
 274   23:40   57.2    37    0.7   269      1.6   924.2    0.00       0    72.4
 274   23:50   56.5    40    1.2   333      3.6   924.3    0.00       0    72.3
 275    0:00   56.4    39    0.8   341      2.3   924.3    0.00       0    72.2
 275    0:10   56.1    40    0.3   334      1.2   924.4    0.00       0    72.1
 275    0:20   56.1    39    0.9   277      2.6   924.5    0.00       0    72.0
 275    0:30   56.1    38    0.1   280      0.8   924.5    0.00       0    71.9
 275    0:40   55.8    39    0.1    98      1.1   924.6    0.00       0    71.7
 275    0:50   55.9    39    0.2   346      1.4   924.7    0.00       0    71.7
 275    1:00   55.6    39    1.0   331      1.9   924.8    0.00       0    71.5
 275    1:10   55.4    41    0.5    48      1.4   924.8    0.00       0    71.4
 275    1:20   55.1    43    0.4    15      1.3   925.1    0.00       0    71.3
 275    1:30   55.6    39    0.8   290      3.1   925.4    0.00       0    71.2
 275    1:40   56.0    37    1.4   266      3.7   925.2    0.00       0    71.1
 275    1:50   55.9    37    1.0   290      2.0   925.3    0.00       0    71.0
 275    2:00   55.7    37    1.0   276      4.4   925.3    0.00       0    71.0
 275    2:10   55.5    38    1.4   234      3.2   925.2    0.00       0    70.8
 275    2:20   55.3    38    1.1   297      2.4   925.1    0.00       0    70.7
 275    2:30   55.0    42    0.8     3      1.8   925.3    0.00       0    70.6
 275    2:40   54.9    40    2.3   314      5.6   925.2    0.00       0    70.6
 275    2:50   56.1    36    1.8   274      4.9   925.1    0.00       0    70.4
 275    3:00   56.2    36    1.9   302      4.4   925.2    0.00       0    70.4
 275    3:10   56.0    37    1.5   300      4.0   925.3    0.00       0    70.3
 275    3:20   55.5    38    0.9   291      3.5   925.5    0.00       0    70.2
 275    3:30   55.2    38    0.8   296      2.4   925.6    0.00       0    70.1
 275    3:40   54.5    40    0.4   153      1.4   925.5    0.00       0    70.0
 275    3:50   53.7    42    0.7   166      2.1   925.6    0.00       0    69.9

Return to St. George, Utah graphs page.


Western Regional Climate Center,wrcc@dri.edu